sensor_id;sensor_type;location;lat;lon;timestamp;temperature;humidity
592;DHT22;283;53.608;10.046;2022-08-25T00:00:16;21.00;99.90
592;DHT22;283;53.608;10.046;2022-08-25T00:02:44;20.90;99.90
592;DHT22;283;53.608;10.046;2022-08-25T00:05:25;20.90;99.90
592;DHT22;283;53.608;10.046;2022-08-25T00:07:59;20.90;99.90
592;DHT22;283;53.608;10.046;2022-08-25T00:10:27;20.80;99.90
592;DHT22;283;53.608;10.046;2022-08-25T00:12:55;20.80;99.90
592;DHT22;283;53.608;10.046;2022-08-25T00:15:23;20.80;99.90
592;DHT22;283;53.608;10.046;2022-08-25T00:17:52;20.80;99.90
592;DHT22;283;53.608;10.046;2022-08-25T00:20:20;20.80;99.90
592;DHT22;283;53.608;10.046;2022-08-25T00:22:48;20.80;99.90
592;DHT22;283;53.608;10.046;2022-08-25T00:25:18;20.80;99.90
592;DHT22;283;53.608;10.046;2022-08-25T00:27:46;20.70;99.90
592;DHT22;283;53.608;10.046;2022-08-25T00:30:15;20.70;99.90
592;DHT22;283;53.608;10.046;2022-08-25T00:32:43;20.70;99.90
592;DHT22;283;53.608;10.046;2022-08-25T00:35:22;20.60;99.90
592;DHT22;283;53.608;10.046;2022-08-25T00:37:50;20.60;99.90
592;DHT22;283;53.608;10.046;2022-08-25T00:40:20;20.60;99.90
592;DHT22;283;53.608;10.046;2022-08-25T00:42:49;20.60;99.90
592;DHT22;283;53.608;10.046;2022-08-25T00:45:17;20.60;99.90
592;DHT22;283;53.608;10.046;2022-08-25T00:47:44;20.50;99.90
592;DHT22;283;53.608;10.046;2022-08-25T00:50:13;20.50;99.90
592;DHT22;283;53.608;10.046;2022-08-25T00:52:45;20.50;99.90
592;DHT22;283;53.608;10.046;2022-08-25T00:55:19;20.40;99.90
592;DHT22;283;53.608;10.046;2022-08-25T00:57:53;20.40;99.90
592;DHT22;283;53.608;10.046;2022-08-25T01:00:25;20.40;99.90
592;DHT22;283;53.608;10.046;2022-08-25T01:02:54;20.40;99.90
592;DHT22;283;53.608;10.046;2022-08-25T01:05:24;20.30;99.90
592;DHT22;283;53.608;10.046;2022-08-25T01:07:52;20.30;99.90
592;DHT22;283;53.608;10.046;2022-08-25T01:10:25;20.30;99.90
592;DHT22;283;53.608;10.046;2022-08-25T01:13:00;20.30;99.90
592;DHT22;283;53.608;10.046;2022-08-25T01:15:29;20.30;99.90
592;DHT22;283;53.608;10.046;2022-08-25T01:17:58;20.20;99.90
592;DHT22;283;53.608;10.046;2022-08-25T01:20:28;20.20;99.90
592;DHT22;283;53.608;10.046;2022-08-25T01:22:59;20.20;99.90
592;DHT22;283;53.608;10.046;2022-08-25T01:25:40;20.20;99.90
592;DHT22;283;53.608;10.046;2022-08-25T01:28:13;20.10;99.90
592;DHT22;283;53.608;10.046;2022-08-25T01:30:41;20.10;99.90
592;DHT22;283;53.608;10.046;2022-08-25T01:33:11;20.10;99.90
592;DHT22;283;53.608;10.046;2022-08-25T01:35:39;20.10;99.90
592;DHT22;283;53.608;10.046;2022-08-25T01:38:08;20.00;99.90
592;DHT22;283;53.608;10.046;2022-08-25T01:40:37;20.00;99.90
592;DHT22;283;53.608;10.046;2022-08-25T01:43:11;20.10;99.90
592;DHT22;283;53.608;10.046;2022-08-25T01:45:46;20.00;99.90
592;DHT22;283;53.608;10.046;2022-08-25T01:48:16;20.00;99.90
592;DHT22;283;53.608;10.046;2022-08-25T01:50:44;20.00;99.90
592;DHT22;283;53.608;10.046;2022-08-25T01:53:18;20.00;99.90
592;DHT22;283;53.608;10.046;2022-08-25T01:55:48;20.00;99.90
592;DHT22;283;53.608;10.046;2022-08-25T01:58:23;19.90;99.90
592;DHT22;283;53.608;10.046;2022-08-25T02:00:53;19.90;99.90
592;DHT22;283;53.608;10.046;2022-08-25T02:03:23;19.80;99.90
592;DHT22;283;53.608;10.046;2022-08-25T02:05:52;19.80;99.90
592;DHT22;283;53.608;10.046;2022-08-25T02:08:22;19.90;99.90
592;DHT22;283;53.608;10.046;2022-08-25T02:10:51;19.80;99.90
592;DHT22;283;53.608;10.046;2022-08-25T02:13:19;19.80;99.90
592;DHT22;283;53.608;10.046;2022-08-25T02:21:13;19.70;99.90
592;DHT22;283;53.608;10.046;2022-08-25T02:23:43;19.70;99.90
592;DHT22;283;53.608;10.046;2022-08-25T02:26:11;19.70;99.90
592;DHT22;283;53.608;10.046;2022-08-25T02:28:42;19.70;99.90
592;DHT22;283;53.608;10.046;2022-08-25T02:31:10;19.70;99.90
592;DHT22;283;53.608;10.046;2022-08-25T02:33:38;19.60;99.90
592;DHT22;283;53.608;10.046;2022-08-25T02:36:06;19.60;99.90
592;DHT22;283;53.608;10.046;2022-08-25T02:38:35;19.60;99.90
592;DHT22;283;53.608;10.046;2022-08-25T02:41:10;19.60;99.90
592;DHT22;283;53.608;10.046;2022-08-25T02:43:40;19.60;99.90
592;DHT22;283;53.608;10.046;2022-08-25T02:46:09;19.60;99.90
592;DHT22;283;53.608;10.046;2022-08-25T02:48:38;19.50;99.90
592;DHT22;283;53.608;10.046;2022-08-25T02:51:08;19.50;99.90
592;DHT22;283;53.608;10.046;2022-08-25T02:53:37;19.60;99.90
592;DHT22;283;53.608;10.046;2022-08-25T02:56:09;19.50;99.90
592;DHT22;283;53.608;10.046;2022-08-25T02:58:38;19.50;99.90
592;DHT22;283;53.608;10.046;2022-08-25T03:01:07;19.50;99.90
592;DHT22;283;53.608;10.046;2022-08-25T03:03:37;19.50;99.90
592;DHT22;283;53.608;10.046;2022-08-25T03:06:10;19.50;99.90
592;DHT22;283;53.608;10.046;2022-08-25T03:08:39;19.50;99.90
592;DHT22;283;53.608;10.046;2022-08-25T03:11:09;19.50;99.90
592;DHT22;283;53.608;10.046;2022-08-25T03:13:37;19.40;99.90
592;DHT22;283;53.608;10.046;2022-08-25T03:16:06;19.40;99.90
592;DHT22;283;53.608;10.046;2022-08-25T03:18:37;19.40;99.90
592;DHT22;283;53.608;10.046;2022-08-25T03:21:06;19.30;99.90
592;DHT22;283;53.608;10.046;2022-08-25T03:23:34;19.40;99.90
592;DHT22;283;53.608;10.046;2022-08-25T03:26:02;19.30;99.90
592;DHT22;283;53.608;10.046;2022-08-25T03:28:48;19.30;99.90
592;DHT22;283;53.608;10.046;2022-08-25T03:31:16;19.30;99.90
592;DHT22;283;53.608;10.046;2022-08-25T03:33:44;19.30;99.90
592;DHT22;283;53.608;10.046;2022-08-25T03:36:12;19.30;99.90
592;DHT22;283;53.608;10.046;2022-08-25T03:38:40;19.20;99.90
592;DHT22;283;53.608;10.046;2022-08-25T03:41:13;19.20;99.90
592;DHT22;283;53.608;10.046;2022-08-25T03:43:42;19.20;99.90
592;DHT22;283;53.608;10.046;2022-08-25T03:46:19;19.20;99.90
592;DHT22;283;53.608;10.046;2022-08-25T03:48:47;19.20;99.90
592;DHT22;283;53.608;10.046;2022-08-25T03:51:20;19.10;99.90
592;DHT22;283;53.608;10.046;2022-08-25T03:53:48;19.10;99.90
592;DHT22;283;53.608;10.046;2022-08-25T03:56:16;19.10;99.90
592;DHT22;283;53.608;10.046;2022-08-25T03:58:44;19.10;99.90
592;DHT22;283;53.608;10.046;2022-08-25T04:01:13;19.00;99.90
592;DHT22;283;53.608;10.046;2022-08-25T04:03:45;19.00;99.90
592;DHT22;283;53.608;10.046;2022-08-25T04:06:15;19.10;99.90
592;DHT22;283;53.608;10.046;2022-08-25T04:08:44;19.00;99.90
592;DHT22;283;53.608;10.046;2022-08-25T04:11:14;19.00;99.90
592;DHT22;283;53.608;10.046;2022-08-25T04:13:44;19.00;99.90
592;DHT22;283;53.608;10.046;2022-08-25T04:16:13;19.00;99.90
592;DHT22;283;53.608;10.046;2022-08-25T04:18:41;19.00;99.90
592;DHT22;283;53.608;10.046;2022-08-25T04:21:11;19.00;99.90
592;DHT22;283;53.608;10.046;2022-08-25T04:23:41;19.00;99.90
592;DHT22;283;53.608;10.046;2022-08-25T04:26:11;19.00;99.90
592;DHT22;283;53.608;10.046;2022-08-25T04:28:39;19.00;99.90
592;DHT22;283;53.608;10.046;2022-08-25T04:31:08;19.00;99.90
592;DHT22;283;53.608;10.046;2022-08-25T04:33:37;19.00;99.90
592;DHT22;283;53.608;10.046;2022-08-25T04:36:06;19.00;99.90
592;DHT22;283;53.608;10.046;2022-08-25T04:38:40;19.00;99.90
592;DHT22;283;53.608;10.046;2022-08-25T04:41:11;19.00;99.90
592;DHT22;283;53.608;10.046;2022-08-25T04:43:40;19.00;99.90
592;DHT22;283;53.608;10.046;2022-08-25T04:46:11;19.00;99.90
592;DHT22;283;53.608;10.046;2022-08-25T04:48:46;19.00;99.90
592;DHT22;283;53.608;10.046;2022-08-25T04:51:16;19.00;99.90
592;DHT22;283;53.608;10.046;2022-08-25T04:53:45;19.00;99.90
592;DHT22;283;53.608;10.046;2022-08-25T04:56:15;19.00;99.90
592;DHT22;283;53.608;10.046;2022-08-25T04:58:43;19.10;99.90
592;DHT22;283;53.608;10.046;2022-08-25T05:01:14;19.00;99.90
592;DHT22;283;53.608;10.046;2022-08-25T05:03:44;19.00;99.90
592;DHT22;283;53.608;10.046;2022-08-25T05:06:13;19.00;99.90
592;DHT22;283;53.608;10.046;2022-08-25T05:08:42;19.10;99.90
592;DHT22;283;53.608;10.046;2022-08-25T05:11:14;19.10;99.90
592;DHT22;283;53.608;10.046;2022-08-25T05:13:44;19.10;99.90
592;DHT22;283;53.608;10.046;2022-08-25T05:16:18;19.10;99.90
592;DHT22;283;53.608;10.046;2022-08-25T05:18:48;19.10;99.90
592;DHT22;283;53.608;10.046;2022-08-25T05:21:18;19.20;99.90
592;DHT22;283;53.608;10.046;2022-08-25T05:23:47;19.20;99.90
592;DHT22;283;53.608;10.046;2022-08-25T05:26:18;19.30;99.90
592;DHT22;283;53.608;10.046;2022-08-25T05:28:49;19.30;99.90
592;DHT22;283;53.608;10.046;2022-08-25T05:31:19;19.50;99.90
592;DHT22;283;53.608;10.046;2022-08-25T05:33:47;19.60;99.90
592;DHT22;283;53.608;10.046;2022-08-25T05:36:16;19.70;99.90
592;DHT22;283;53.608;10.046;2022-08-25T05:38:45;19.70;99.90
592;DHT22;283;53.608;10.046;2022-08-25T05:41:17;19.80;99.90
592;DHT22;283;53.608;10.046;2022-08-25T05:43:47;19.90;99.90
592;DHT22;283;53.608;10.046;2022-08-25T05:46:17;19.90;99.90
592;DHT22;283;53.608;10.046;2022-08-25T05:48:45;20.10;99.90
592;DHT22;283;53.608;10.046;2022-08-25T05:51:13;20.10;99.90
592;DHT22;283;53.608;10.046;2022-08-25T05:53:43;20.10;99.90
592;DHT22;283;53.608;10.046;2022-08-25T05:56:12;20.10;99.90
592;DHT22;283;53.608;10.046;2022-08-25T05:58:43;20.10;99.90
592;DHT22;283;53.608;10.046;2022-08-25T06:01:19;20.20;99.90
592;DHT22;283;53.608;10.046;2022-08-25T06:04:09;20.20;99.90
592;DHT22;283;53.608;10.046;2022-08-25T06:06:37;20.30;99.90
592;DHT22;283;53.608;10.046;2022-08-25T06:09:05;20.30;99.90
592;DHT22;283;53.608;10.046;2022-08-25T06:11:35;20.40;99.90
592;DHT22;283;53.608;10.046;2022-08-25T06:14:08;20.40;99.90
592;DHT22;283;53.608;10.046;2022-08-25T06:16:36;20.40;99.90
592;DHT22;283;53.608;10.046;2022-08-25T06:19:05;20.40;99.90
592;DHT22;283;53.608;10.046;2022-08-25T06:21:33;20.50;99.90
592;DHT22;283;53.608;10.046;2022-08-25T06:24:01;20.50;99.90
592;DHT22;283;53.608;10.046;2022-08-25T06:26:29;20.50;99.90
592;DHT22;283;53.608;10.046;2022-08-25T06:28:57;20.60;99.90
592;DHT22;283;53.608;10.046;2022-08-25T06:31:26;20.70;99.90
592;DHT22;283;53.608;10.046;2022-08-25T06:33:54;20.70;99.90
592;DHT22;283;53.608;10.046;2022-08-25T06:36:23;20.80;99.90
592;DHT22;283;53.608;10.046;2022-08-25T06:38:51;20.80;99.90
592;DHT22;283;53.608;10.046;2022-08-25T06:41:19;20.90;99.90
592;DHT22;283;53.608;10.046;2022-08-25T06:43:48;20.90;99.90
592;DHT22;283;53.608;10.046;2022-08-25T06:46:26;20.90;99.90
592;DHT22;283;53.608;10.046;2022-08-25T06:49:03;21.00;99.90
592;DHT22;283;53.608;10.046;2022-08-25T06:51:31;21.10;99.90
592;DHT22;283;53.608;10.046;2022-08-25T06:54:02;21.10;99.90
592;DHT22;283;53.608;10.046;2022-08-25T06:56:30;21.20;99.90
592;DHT22;283;53.608;10.046;2022-08-25T06:58:59;21.30;99.90
592;DHT22;283;53.608;10.046;2022-08-25T07:01:29;21.30;99.90
592;DHT22;283;53.608;10.046;2022-08-25T07:03:59;21.40;99.90
592;DHT22;283;53.608;10.046;2022-08-25T07:06:30;21.50;99.90
592;DHT22;283;53.608;10.046;2022-08-25T07:08:59;21.60;99.90
592;DHT22;283;53.608;10.046;2022-08-25T07:11:27;21.60;99.90
592;DHT22;283;53.608;10.046;2022-08-25T07:13:55;21.70;99.90
592;DHT22;283;53.608;10.046;2022-08-25T07:16:22;21.70;99.90
592;DHT22;283;53.608;10.046;2022-08-25T07:18:57;21.70;99.90
592;DHT22;283;53.608;10.046;2022-08-25T07:21:27;21.60;99.90
592;DHT22;283;53.608;10.046;2022-08-25T07:23:59;21.60;99.90
592;DHT22;283;53.608;10.046;2022-08-25T07:26:30;21.60;99.90
592;DHT22;283;53.608;10.046;2022-08-25T07:29:11;21.60;99.90
592;DHT22;283;53.608;10.046;2022-08-25T07:31:39;21.60;99.90
592;DHT22;283;53.608;10.046;2022-08-25T07:34:09;21.70;99.90
592;DHT22;283;53.608;10.046;2022-08-25T07:36:55;21.80;99.90
592;DHT22;283;53.608;10.046;2022-08-25T07:39:25;21.90;99.90
592;DHT22;283;53.608;10.046;2022-08-25T07:41:54;21.90;99.90
592;DHT22;283;53.608;10.046;2022-08-25T07:44:23;22.00;99.90
592;DHT22;283;53.608;10.046;2022-08-25T07:46:54;22.00;99.90
592;DHT22;283;53.608;10.046;2022-08-25T07:49:24;22.00;99.90
592;DHT22;283;53.608;10.046;2022-08-25T07:52:05;22.00;99.90
592;DHT22;283;53.608;10.046;2022-08-25T07:54:35;22.00;99.90
592;DHT22;283;53.608;10.046;2022-08-25T07:57:05;22.00;99.90
592;DHT22;283;53.608;10.046;2022-08-25T07:59:33;22.00;99.90
592;DHT22;283;53.608;10.046;2022-08-25T08:02:07;22.10;99.90
592;DHT22;283;53.608;10.046;2022-08-25T08:04:47;22.20;99.90
592;DHT22;283;53.608;10.046;2022-08-25T08:07:20;22.20;99.90
592;DHT22;283;53.608;10.046;2022-08-25T08:09:49;22.10;99.90
592;DHT22;283;53.608;10.046;2022-08-25T08:12:37;22.20;99.90
592;DHT22;283;53.608;10.046;2022-08-25T08:15:06;22.20;99.90
592;DHT22;283;53.608;10.046;2022-08-25T08:17:37;22.20;99.90
592;DHT22;283;53.608;10.046;2022-08-25T08:20:08;22.20;99.90
592;DHT22;283;53.608;10.046;2022-08-25T08:22:38;22.20;99.90
592;DHT22;283;53.608;10.046;2022-08-25T08:25:08;22.30;99.90
592;DHT22;283;53.608;10.046;2022-08-25T08:27:39;22.40;99.90
592;DHT22;283;53.608;10.046;2022-08-25T08:30:09;22.50;99.90
592;DHT22;283;53.608;10.046;2022-08-25T08:32:37;22.60;99.90
592;DHT22;283;53.608;10.046;2022-08-25T08:35:26;22.70;99.90
592;DHT22;283;53.608;10.046;2022-08-25T08:37:54;22.80;99.90
592;DHT22;283;53.608;10.046;2022-08-25T08:40:22;22.80;99.90
592;DHT22;283;53.608;10.046;2022-08-25T08:42:58;22.80;99.90
592;DHT22;283;53.608;10.046;2022-08-25T08:45:33;22.90;99.90
592;DHT22;283;53.608;10.046;2022-08-25T08:48:35;23.00;99.90
592;DHT22;283;53.608;10.046;2022-08-25T08:51:15;22.90;99.90
592;DHT22;283;53.608;10.046;2022-08-25T08:53:49;22.90;99.90
592;DHT22;283;53.608;10.046;2022-08-25T08:56:23;23.00;99.90
592;DHT22;283;53.608;10.046;2022-08-25T08:58:58;23.10;99.90
592;DHT22;283;53.608;10.046;2022-08-25T09:01:34;23.10;99.90
592;DHT22;283;53.608;10.046;2022-08-25T09:04:10;23.10;99.90
592;DHT22;283;53.608;10.046;2022-08-25T09:06:47;23.10;99.90
592;DHT22;283;53.608;10.046;2022-08-25T09:09:19;23.10;99.90
592;DHT22;283;53.608;10.046;2022-08-25T09:11:56;23.20;99.90
592;DHT22;283;53.608;10.046;2022-08-25T09:14:38;23.20;99.90
592;DHT22;283;53.608;10.046;2022-08-25T09:17:14;23.30;99.90
592;DHT22;283;53.608;10.046;2022-08-25T09:20:02;23.40;99.90
592;DHT22;283;53.608;10.046;2022-08-25T09:22:53;23.50;99.90
592;DHT22;283;53.608;10.046;2022-08-25T09:25:31;23.60;99.90
592;DHT22;283;53.608;10.046;2022-08-25T09:28:29;23.80;99.90
592;DHT22;283;53.608;10.046;2022-08-25T09:31:00;24.00;99.90
592;DHT22;283;53.608;10.046;2022-08-25T09:33:30;24.10;99.90
592;DHT22;283;53.608;10.046;2022-08-25T09:36:03;24.00;99.90
592;DHT22;283;53.608;10.046;2022-08-25T09:38:36;23.90;99.90
592;DHT22;283;53.608;10.046;2022-08-25T09:41:06;23.80;99.90
592;DHT22;283;53.608;10.046;2022-08-25T09:43:40;23.70;99.90
592;DHT22;283;53.608;10.046;2022-08-25T09:46:11;23.50;99.90
592;DHT22;283;53.608;10.046;2022-08-25T09:48:45;23.40;99.90
592;DHT22;283;53.608;10.046;2022-08-25T09:51:25;23.30;99.90
592;DHT22;283;53.608;10.046;2022-08-25T09:53:58;23.30;99.90
592;DHT22;283;53.608;10.046;2022-08-25T09:56:47;23.40;99.90
592;DHT22;283;53.608;10.046;2022-08-25T09:59:21;23.40;99.90
592;DHT22;283;53.608;10.046;2022-08-25T10:02:03;23.50;99.90
592;DHT22;283;53.608;10.046;2022-08-25T10:04:33;23.60;99.90
592;DHT22;283;53.608;10.046;2022-08-25T10:07:04;23.50;99.90
592;DHT22;283;53.608;10.046;2022-08-25T10:09:39;23.60;99.90
592;DHT22;283;53.608;10.046;2022-08-25T10:12:16;23.60;99.90
592;DHT22;283;53.608;10.046;2022-08-25T10:14:50;23.70;99.90
592;DHT22;283;53.608;10.046;2022-08-25T10:17:25;23.70;99.90
592;DHT22;283;53.608;10.046;2022-08-25T10:20:13;23.90;99.90
592;DHT22;283;53.608;10.046;2022-08-25T10:22:43;24.00;99.90
592;DHT22;283;53.608;10.046;2022-08-25T10:25:17;24.10;99.90
592;DHT22;283;53.608;10.046;2022-08-25T10:27:58;24.30;99.90
592;DHT22;283;53.608;10.046;2022-08-25T10:30:38;24.50;99.90
592;DHT22;283;53.608;10.046;2022-08-25T10:33:14;24.70;99.90
592;DHT22;283;53.608;10.046;2022-08-25T10:35:56;24.80;99.90
592;DHT22;283;53.608;10.046;2022-08-25T10:38:35;25.00;99.90
592;DHT22;283;53.608;10.046;2022-08-25T10:41:16;25.20;99.90
592;DHT22;283;53.608;10.046;2022-08-25T10:43:53;25.50;99.90
592;DHT22;283;53.608;10.046;2022-08-25T10:46:32;25.80;99.90
592;DHT22;283;53.608;10.046;2022-08-25T10:49:04;26.10;99.90
592;DHT22;283;53.608;10.046;2022-08-25T10:51:51;26.30;99.90
592;DHT22;283;53.608;10.046;2022-08-25T10:54:40;26.50;99.90
592;DHT22;283;53.608;10.046;2022-08-25T10:57:21;26.80;99.90
592;DHT22;283;53.608;10.046;2022-08-25T10:59:59;27.00;99.90
592;DHT22;283;53.608;10.046;2022-08-25T11:03:13;27.20;99.90
592;DHT22;283;53.608;10.046;2022-08-25T11:05:48;27.10;99.90
592;DHT22;283;53.608;10.046;2022-08-25T11:08:23;27.00;99.90
592;DHT22;283;53.608;10.046;2022-08-25T11:11:03;26.80;99.90
592;DHT22;283;53.608;10.046;2022-08-25T11:13:39;26.60;99.90
592;DHT22;283;53.608;10.046;2022-08-25T11:16:11;26.50;99.90
592;DHT22;283;53.608;10.046;2022-08-25T11:18:51;26.50;99.90
592;DHT22;283;53.608;10.046;2022-08-25T11:21:24;26.50;99.90
592;DHT22;283;53.608;10.046;2022-08-25T11:23:59;26.80;99.90
592;DHT22;283;53.608;10.046;2022-08-25T11:26:33;27.00;99.90
592;DHT22;283;53.608;10.046;2022-08-25T11:29:10;27.30;99.90
592;DHT22;283;53.608;10.046;2022-08-25T11:31:42;27.50;99.90
592;DHT22;283;53.608;10.046;2022-08-25T11:34:17;27.80;99.90
592;DHT22;283;53.608;10.046;2022-08-25T11:36:49;27.90;99.90
592;DHT22;283;53.608;10.046;2022-08-25T11:39:27;28.00;99.90
592;DHT22;283;53.608;10.046;2022-08-25T11:42:06;27.90;99.90
592;DHT22;283;53.608;10.046;2022-08-25T11:44:47;27.90;99.90
592;DHT22;283;53.608;10.046;2022-08-25T11:47:32;27.80;99.90
592;DHT22;283;53.608;10.046;2022-08-25T11:50:06;27.80;99.90
592;DHT22;283;53.608;10.046;2022-08-25T11:52:49;27.80;99.90
592;DHT22;283;53.608;10.046;2022-08-25T11:55:22;27.90;99.90
592;DHT22;283;53.608;10.046;2022-08-25T11:58:14;27.90;99.90
592;DHT22;283;53.608;10.046;2022-08-25T12:00:45;27.90;99.90
592;DHT22;283;53.608;10.046;2022-08-25T12:03:45;27.90;99.90
592;DHT22;283;53.608;10.046;2022-08-25T12:06:24;27.80;99.90
592;DHT22;283;53.608;10.046;2022-08-25T12:11:50;27.80;99.90
592;DHT22;283;53.608;10.046;2022-08-25T12:14:42;27.90;99.90
592;DHT22;283;53.608;10.046;2022-08-25T12:17:26;28.00;99.90
592;DHT22;283;53.608;10.046;2022-08-25T12:20:06;28.00;99.90
592;DHT22;283;53.608;10.046;2022-08-25T12:25:34;27.90;99.90
592;DHT22;283;53.608;10.046;2022-08-25T12:28:09;27.80;99.90
592;DHT22;283;53.608;10.046;2022-08-25T12:30:49;27.80;99.90
592;DHT22;283;53.608;10.046;2022-08-25T12:33:31;27.90;99.90
592;DHT22;283;53.608;10.046;2022-08-25T12:36:04;28.10;99.90
592;DHT22;283;53.608;10.046;2022-08-25T12:38:41;28.20;99.90
592;DHT22;283;53.608;10.046;2022-08-25T12:41:18;28.20;99.90
592;DHT22;283;53.608;10.046;2022-08-25T12:43:51;28.20;99.90
592;DHT22;283;53.608;10.046;2022-08-25T12:46:35;28.20;99.90
592;DHT22;283;53.608;10.046;2022-08-25T12:49:14;28.30;99.90
592;DHT22;283;53.608;10.046;2022-08-25T12:51:59;28.40;99.90
592;DHT22;283;53.608;10.046;2022-08-25T12:54:38;28.40;99.90
592;DHT22;283;53.608;10.046;2022-08-25T12:57:32;28.40;99.90
592;DHT22;283;53.608;10.046;2022-08-25T13:00:14;28.40;99.90
592;DHT22;283;53.608;10.046;2022-08-25T13:03:17;28.50;99.90
592;DHT22;283;53.608;10.046;2022-08-25T13:06:13;28.60;99.90
592;DHT22;283;53.608;10.046;2022-08-25T13:11:38;28.60;99.90
592;DHT22;283;53.608;10.046;2022-08-25T13:14:17;28.60;99.90
592;DHT22;283;53.608;10.046;2022-08-25T13:16:53;28.60;99.90
592;DHT22;283;53.608;10.046;2022-08-25T13:19:22;28.50;99.90
592;DHT22;283;53.608;10.046;2022-08-25T13:21:53;28.50;99.90
592;DHT22;283;53.608;10.046;2022-08-25T13:24:25;28.60;99.90
592;DHT22;283;53.608;10.046;2022-08-25T13:26:55;28.60;99.90
592;DHT22;283;53.608;10.046;2022-08-25T13:29:26;28.60;99.90
592;DHT22;283;53.608;10.046;2022-08-25T13:32:03;28.50;99.90
592;DHT22;283;53.608;10.046;2022-08-25T13:34:37;28.40;99.90
592;DHT22;283;53.608;10.046;2022-08-25T13:37:16;28.40;99.90
592;DHT22;283;53.608;10.046;2022-08-25T13:40:13;28.30;99.90
592;DHT22;283;53.608;10.046;2022-08-25T13:42:45;28.30;99.90
592;DHT22;283;53.608;10.046;2022-08-25T13:45:23;28.40;99.90
592;DHT22;283;53.608;10.046;2022-08-25T13:47:52;28.40;99.90
592;DHT22;283;53.608;10.046;2022-08-25T13:50:32;28.40;99.90
592;DHT22;283;53.608;10.046;2022-08-25T13:53:05;28.50;99.90
592;DHT22;283;53.608;10.046;2022-08-25T13:55:39;28.50;99.90
592;DHT22;283;53.608;10.046;2022-08-25T13:58:20;28.50;99.90
592;DHT22;283;53.608;10.046;2022-08-25T14:01:01;28.60;99.90
592;DHT22;283;53.608;10.046;2022-08-25T14:03:51;28.70;99.90
592;DHT22;283;53.608;10.046;2022-08-25T14:06:22;28.80;99.90
592;DHT22;283;53.608;10.046;2022-08-25T14:09:10;28.80;99.90
592;DHT22;283;53.608;10.046;2022-08-25T14:11:45;28.80;99.90
592;DHT22;283;53.608;10.046;2022-08-25T14:14:30;28.80;99.90
592;DHT22;283;53.608;10.046;2022-08-25T14:17:03;28.90;99.90
592;DHT22;283;53.608;10.046;2022-08-25T14:19:52;29.00;99.90
592;DHT22;283;53.608;10.046;2022-08-25T14:22:20;29.20;99.90
592;DHT22;283;53.608;10.046;2022-08-25T14:24:51;29.30;99.90
592;DHT22;283;53.608;10.046;2022-08-25T14:27:19;29.30;99.90
592;DHT22;283;53.608;10.046;2022-08-25T14:29:47;29.20;99.90
592;DHT22;283;53.608;10.046;2022-08-25T14:32:18;29.10;99.90
592;DHT22;283;53.608;10.046;2022-08-25T14:34:47;29.10;99.90
592;DHT22;283;53.608;10.046;2022-08-25T14:37:17;29.00;99.90
592;DHT22;283;53.608;10.046;2022-08-25T14:39:45;29.00;99.90
592;DHT22;283;53.608;10.046;2022-08-25T14:42:14;28.90;99.90
592;DHT22;283;53.608;10.046;2022-08-25T14:44:43;28.90;99.90
592;DHT22;283;53.608;10.046;2022-08-25T14:47:11;28.80;99.90
592;DHT22;283;53.608;10.046;2022-08-25T14:49:41;28.80;99.90
592;DHT22;283;53.608;10.046;2022-08-25T14:52:15;28.90;99.90
592;DHT22;283;53.608;10.046;2022-08-25T14:54:48;29.00;99.90
592;DHT22;283;53.608;10.046;2022-08-25T14:57:17;29.00;99.90
592;DHT22;283;53.608;10.046;2022-08-25T14:59:46;29.00;99.90
592;DHT22;283;53.608;10.046;2022-08-25T15:02:15;28.90;99.90
592;DHT22;283;53.608;10.046;2022-08-25T15:04:49;28.80;99.90
592;DHT22;283;53.608;10.046;2022-08-25T15:07:18;28.70;99.90
592;DHT22;283;53.608;10.046;2022-08-25T15:10:06;28.70;99.90
592;DHT22;283;53.608;10.046;2022-08-25T15:12:40;28.60;99.90
592;DHT22;283;53.608;10.046;2022-08-25T15:15:13;28.60;99.90
592;DHT22;283;53.608;10.046;2022-08-25T15:17:43;28.50;99.90
592;DHT22;283;53.608;10.046;2022-08-25T15:20:15;28.50;99.90
592;DHT22;283;53.608;10.046;2022-08-25T15:22:42;28.50;99.90
592;DHT22;283;53.608;10.046;2022-08-25T15:25:11;28.50;99.90
592;DHT22;283;53.608;10.046;2022-08-25T15:27:40;28.50;99.90
592;DHT22;283;53.608;10.046;2022-08-25T15:30:10;28.60;99.90
592;DHT22;283;53.608;10.046;2022-08-25T15:32:39;28.60;99.90
592;DHT22;283;53.608;10.046;2022-08-25T15:35:08;28.60;99.90
592;DHT22;283;53.608;10.046;2022-08-25T15:37:40;28.60;99.90
592;DHT22;283;53.608;10.046;2022-08-25T15:40:10;28.60;99.90
592;DHT22;283;53.608;10.046;2022-08-25T15:42:39;28.50;99.90
592;DHT22;283;53.608;10.046;2022-08-25T15:45:11;28.50;99.90
592;DHT22;283;53.608;10.046;2022-08-25T15:47:40;28.40;99.90
592;DHT22;283;53.608;10.046;2022-08-25T15:50:10;28.30;99.90
592;DHT22;283;53.608;10.046;2022-08-25T15:52:40;28.30;99.90
592;DHT22;283;53.608;10.046;2022-08-25T15:55:13;28.30;99.90
592;DHT22;283;53.608;10.046;2022-08-25T15:57:43;28.30;99.90
592;DHT22;283;53.608;10.046;2022-08-25T16:00:12;28.20;99.90
592;DHT22;283;53.608;10.046;2022-08-25T16:02:42;28.20;99.90
592;DHT22;283;53.608;10.046;2022-08-25T16:05:12;28.10;99.90
592;DHT22;283;53.608;10.046;2022-08-25T16:07:42;28.00;99.90
592;DHT22;283;53.608;10.046;2022-08-25T16:10:11;28.00;99.90
592;DHT22;283;53.608;10.046;2022-08-25T16:12:43;28.00;99.90
592;DHT22;283;53.608;10.046;2022-08-25T16:15:11;28.00;99.90
592;DHT22;283;53.608;10.046;2022-08-25T16:17:39;28.00;99.90
592;DHT22;283;53.608;10.046;2022-08-25T16:20:15;28.00;99.90
592;DHT22;283;53.608;10.046;2022-08-25T16:22:43;28.00;99.90
592;DHT22;283;53.608;10.046;2022-08-25T16:25:12;27.90;99.90
592;DHT22;283;53.608;10.046;2022-08-25T16:27:44;27.90;99.90
592;DHT22;283;53.608;10.046;2022-08-25T16:30:12;27.80;99.90
592;DHT22;283;53.608;10.046;2022-08-25T16:32:43;27.80;99.90
592;DHT22;283;53.608;10.046;2022-08-25T16:35:12;27.80;99.90
592;DHT22;283;53.608;10.046;2022-08-25T16:37:41;27.80;99.90
592;DHT22;283;53.608;10.046;2022-08-25T16:40:10;27.80;99.90
592;DHT22;283;53.608;10.046;2022-08-25T16:42:40;27.80;99.90
592;DHT22;283;53.608;10.046;2022-08-25T16:45:10;27.70;99.90
592;DHT22;283;53.608;10.046;2022-08-25T16:47:38;27.70;99.90
592;DHT22;283;53.608;10.046;2022-08-25T16:50:09;27.70;99.90
592;DHT22;283;53.608;10.046;2022-08-25T16:52:37;27.70;99.90
592;DHT22;283;53.608;10.046;2022-08-25T16:55:25;27.70;99.90
592;DHT22;283;53.608;10.046;2022-08-25T16:58:05;27.60;99.90
592;DHT22;283;53.608;10.046;2022-08-25T17:00:36;27.50;99.90
592;DHT22;283;53.608;10.046;2022-08-25T17:03:05;27.50;99.90
592;DHT22;283;53.608;10.046;2022-08-25T17:05:39;27.50;99.90
592;DHT22;283;53.608;10.046;2022-08-25T17:08:07;27.50;99.90